Wetterdaten: Woche 18.08.14 - 24.08.14 (KW34)
Datum Zeit Temp. A. Feuchte A. Luftdruck Regen Wind Richtung Taupunkt Windchill Windben
18.08.2014 00:00 14,5 C 77 % 1012,3 hPa 0,0 l/m 0,1 km/h N 10,5 C 14,5 C 1,2 km/h
18.08.2014 01:00 12,8 C 81 % 1012,3 hPa 0,0 l/m 0,0 km/h N 9,6 C 12,8 C 0,4 km/h
18.08.2014 02:00 11,7 C 84 % 1012,2 hPa 0,0 l/m 0,0 km/h N 9,0 C 11,7 C 0,0 km/h
18.08.2014 03:00 11,1 C 84 % 1012,1 hPa 0,0 l/m 0,0 km/h N 8,5 C 11,1 C 0,0 km/h
18.08.2014 04:00 10,6 C 84 % 1012,1 hPa 0,0 l/m 0,0 km/h N 8,0 C 10,6 C 0,0 km/h
18.08.2014 05:00 10,3 C 84 % 1012,1 hPa 0,0 l/m 0,0 km/h N 7,7 C 10,3 C 0,0 km/h
18.08.2014 06:00 10,1 C 83 % 1012,3 hPa 0,0 l/m 0,0 km/h N 7,4 C 10,1 C 0,0 km/h
18.08.2014 07:00 11,5 C 81 % 1012,4 hPa 0,0 l/m 0,1 km/h N 8,3 C 11,5 C 2,4 km/h
18.08.2014 08:00 14,7 C 80 % 1012,3 hPa 0,0 l/m 1,5 km/h N 11,3 C 14,7 C 6,0 km/h
18.08.2014 09:00 19,5 C 68 % 1012,3 hPa 0,0 l/m 0,2 km/h N 13,5 C 19,5 C 2,8 km/h
18.08.2014 10:00 23,3 C 53 % 1011,9 hPa 0,0 l/m 2,9 km/h N 13,0 C 23,3 C 9,3 km/h
18.08.2014 11:00 24,9 C 49 % 1011,6 hPa 0,0 l/m 4,0 km/h N 13,3 C 24,9 C 10,9 km/h
18.08.2014 12:00 25,5 C 47 % 1011,1 hPa 0,0 l/m 4,6 km/h N 13,2 C 25,5 C 16,5 km/h
18.08.2014 13:00 26,1 C 43 % 1010,5 hPa 0,0 l/m 3,9 km/h N 12,5 C 26,1 C 17,7 km/h
18.08.2014 14:00 26,6 C 46 % 1009,7 hPa 0,0 l/m 4,0 km/h N 13,8 C 26,6 C 16,5 km/h
18.08.2014 15:00 26,6 C 42 % 1008,7 hPa 0,0 l/m 7,0 km/h N 12,7 C 26,3 C 21,7 km/h
18.08.2014 16:00 26,0 C 45 % 1008,3 hPa 0,0 l/m 10,1 km/h N 13,1 C 25,2 C 27,4 km/h
18.08.2014 17:00 25,4 C 48 % 1007,9 hPa 0,0 l/m 9,3 km/h N 13,7 C 24,8 C 23,3 km/h
18.08.2014 18:00 24,7 C 50 % 1007,8 hPa 0,0 l/m 7,4 km/h N 13,5 C 24,4 C 21,3 km/h
18.08.2014 19:00 23,9 C 55 % 1007,8 hPa 0,0 l/m 7,0 km/h N 14,2 C 23,7 C 19,7 km/h
18.08.2014 20:00 22,5 C 60 % 1007,7 hPa 0,0 l/m 4,7 km/h N 14,4 C 22,5 C 14,5 km/h
18.08.2014 21:00 21,1 C 67 % 1007,9 hPa 0,0 l/m 2,5 km/h N 14,7 C 21,1 C 10,5 km/h
18.08.2014 22:00 20,3 C 69 % 1009,0 hPa 0,0 l/m 2,0 km/h N 14,4 C 20,3 C 12,1 km/h
18.08.2014 23:00 19,5 C 75 % 1010,0 hPa 0,0 l/m 3,5 km/h N 14,9 C 19,5 C 15,7 km/h
19.08.2014 00:00 18,4 C 79 % 1010,3 hPa 0,0 l/m 3,6 km/h N 14,6 C 18,4 C 12,9 km/h
19.08.2014 01:00 18,3 C 75 % 1010,6 hPa 0,0 l/m 3,8 km/h N 13,7 C 18,3 C 12,9 km/h
19.08.2014 02:00 18,0 C 75 % 1010,5 hPa 0,0 l/m 1,3 km/h N 13,4 C 18,0 C 6,4 km/h
19.08.2014 03:00 16,6 C 79 % 1010,8 hPa 0,0 l/m 0,1 km/h N 13,0 C 16,6 C 1,2 km/h
19.08.2014 04:00 16,9 C 81 % 1010,9 hPa 0,0 l/m 0,4 km/h N 13,5 C 16,9 C 5,6 km/h
19.08.2014 05:00 16,8 C 81 % 1011,2 hPa 0,0 l/m 0,1 km/h N 13,5 C 16,8 C 1,6 km/h
19.08.2014 06:00 16,5 C 82 % 1011,6 hPa 0,0 l/m 0,1 km/h N 13,4 C 16,5 C 2,0 km/h
19.08.2014 07:00 17,0 C 81 % 1011,6 hPa 0,0 l/m 0,7 km/h N 13,7 C 17,0 C 5,2 km/h
19.08.2014 08:00 18,1 C 78 % 1011,8 hPa 0,0 l/m 0,6 km/h N 14,1 C 18,1 C 5,6 km/h
19.08.2014 09:00 19,1 C 74 % 1011,7 hPa 0,0 l/m 2,0 km/h N 14,3 C 19,1 C 7,6 km/h
19.08.2014 10:00 19,9 C 69 % 1012,1 hPa 0,0 l/m 1,3 km/h N 14,1 C 19,9 C 5,6 km/h
19.08.2014 11:00 19,6 C 72 % 1012,7 hPa 0,0 l/m 4,4 km/h N 14,4 C 19,4 C 13,6 km/h
19.08.2014 12:00 18,5 C 71 % 1013,1 hPa 0,0 l/m 8,8 km/h N 13,2 C 17,5 C 22,9 km/h
19.08.2014 13:00 18,8 C 69 % 1012,8 hPa 0,0 l/m 3,3 km/h N 12,9 C 18,8 C 11,7 km/h
19.08.2014 14:00 19,9 C 68 % 1012,3 hPa 0,0 l/m 1,2 km/h N 13,7 C 19,9 C 6,0 km/h
19.08.2014 15:00 20,7 C 61 % 1012,0 hPa 0,0 l/m 0,8 km/h N 12,9 C 20,7 C 4,8 km/h
19.08.2014 16:00 20,6 C 62 % 1012,3 hPa 0,0 l/m 0,0 km/h N 13,1 C 20,6 C 1,2 km/h
19.08.2014 17:00 21,3 C 60 % 1012,2 hPa 0,0 l/m 0,8 km/h N 13,0 C 21,3 C 5,2 km/h
19.08.2014 18:00 21,1 C 60 % 1012,0 hPa 0,0 l/m 1,2 km/h N 12,9 C 21,1 C 8,0 km/h
19.08.2014 19:00 20,4 C 64 % 1012,0 hPa 0,0 l/m 0,2 km/h N 13,2 C 20,4 C 2,8 km/h
19.08.2014 20:00 18,6 C 70 % 1012,5 hPa 0,0 l/m 0,1 km/h N 13,0 C 18,6 C 2,4 km/h
19.08.2014 21:00 16,7 C 77 % 1012,8 hPa 0,0 l/m 0,1 km/h N 12,6 C 16,7 C 0,8 km/h
19.08.2014 22:00 15,9 C 82 % 1013,0 hPa 0,0 l/m 0,0 km/h N 12,8 C 15,9 C 0,0 km/h
19.08.2014 23:00 15,3 C 83 % 1013,2 hPa 0,0 l/m 0,1 km/h N 12,4 C 15,3 C 0,8 km/h
20.08.2014 00:00 15,8 C 84 % 1013,2 hPa 0,0 l/m 0,2 km/h N 13,0 C 15,8 C 3,2 km/h
20.08.2014 01:00 16,1 C 84 % 1013,1 hPa 0,0 l/m 0,3 km/h N 13,4 C 16,1 C 2,4 km/h
20.08.2014 02:00 16,1 C 83 % 1012,9 hPa 0,0 l/m 0,0 km/h N 13,2 C 16,1 C 0,0 km/h
20.08.2014 03:00 15,9 C 84 % 1012,9 hPa 0,0 l/m 0,0 km/h N 13,1 C 15,9 C 0,4 km/h
20.08.2014 04:00 15,8 C 84 % 1013,1 hPa 0,0 l/m 0,0 km/h N 13,1 C 15,8 C 0,0 km/h
20.08.2014 05:00 15,7 C 84 % 1013,5 hPa 0,0 l/m 0,0 km/h N 13,0 C 15,7 C 0,0 km/h
20.08.2014 06:00 15,6 C 83 % 1014,1 hPa 0,0 l/m 0,0 km/h N 12,8 C 15,6 C 0,0 km/h
20.08.2014 07:00 15,8 C 83 % 1014,7 hPa 0,0 l/m 0,9 km/h N 13,0 C 15,8 C 6,4 km/h
20.08.2014 08:00 16,9 C 78 % 1015,2 hPa 0,0 l/m 2,4 km/h N 13,1 C 16,9 C 10,1 km/h
20.08.2014 09:00 16,8 C 76 % 1015,8 hPa 0,3 l/m 4,4 km/h N 12,5 C 16,8 C 11,7 km/h
20.08.2014 10:00 15,3 C 83 % 1016,7 hPa 0,5 l/m 3,1 km/h N 12,3 C 15,3 C 10,9 km/h
20.08.2014 11:00 14,9 C 83 % 1016,9 hPa 0,3 l/m 4,0 km/h N 12,0 C 14,9 C 10,5 km/h
20.08.2014 12:00 15,4 C 81 % 1017,0 hPa 0,0 l/m 2,3 km/h N 12,0 C 15,4 C 9,6 km/h
20.08.2014 13:00 16,6 C 73 % 1016,7 hPa 0,0 l/m 4,5 km/h N 11,7 C 16,6 C 14,5 km/h
20.08.2014 14:00 17,5 C 69 % 1016,7 hPa 0,0 l/m 6,2 km/h N 11,7 C 17,4 C 19,7 km/h
20.08.2014 15:00 17,0 C 70 % 1016,5 hPa 0,0 l/m 3,9 km/h N 11,4 C 17,0 C 12,4 km/h
20.08.2014 16:00 17,4 C 67 % 1015,9 hPa 0,0 l/m 2,3 km/h N 11,2 C 17,4 C 10,9 km/h
20.08.2014 17:00 18,0 C 68 % 1015,5 hPa 0,0 l/m 0,3 km/h N 11,9 C 18,0 C 4,0 km/h
20.08.2014 18:00 17,2 C 66 % 1015,2 hPa 0,0 l/m 1,3 km/h N 10,9 C 17,2 C 6,8 km/h
20.08.2014 19:00 16,5 C 72 % 1015,3 hPa 0,0 l/m 0,3 km/h N 11,4 C 16,5 C 3,2 km/h
20.08.2014 20:00 16,0 C 77 % 1015,6 hPa 0,8 l/m 0,1 km/h N 11,9 C 16,0 C 2,0 km/h
20.08.2014 21:00 15,0 C 80 % 1016,0 hPa 2,1 l/m 0,0 km/h N 11,6 C 15,0 C 0,8 km/h
20.08.2014 22:00 14,1 C 83 % 1016,0 hPa 1,3 l/m 0,0 km/h N 11,3 C 14,1 C 0,0 km/h
20.08.2014 23:00 13,6 C 84 % 1016,3 hPa 0,8 l/m 0,9 km/h N 10,9 C 13,6 C 4,8 km/h
21.08.2014 00:00 13,2 C 84 % 1016,3 hPa 1,0 l/m 0,3 km/h N 10,5 C 13,2 C 3,6 km/h
21.08.2014 01:00 12,8 C 83 % 1016,0 hPa 0,0 l/m 2,0 km/h N 10,0 C 12,8 C 9,3 km/h
21.08.2014 02:00 12,8 C 82 % 1015,7 hPa 1,0 l/m 1,7 km/h N 9,8 C 12,8 C 7,6 km/h
21.08.2014 03:00 12,7 C 82 % 1015,4 hPa 1,6 l/m 0,4 km/h N 9,7 C 12,7 C 3,2 km/h
21.08.2014 04:00 12,7 C 81 % 1015,2 hPa 1,0 l/m 1,0 km/h N 9,5 C 12,7 C 4,0 km/h
21.08.2014 05:00 12,4 C 81 % 1015,8 hPa 3,6 l/m 2,9 km/h N 9,2 C 12,4 C 14,1 km/h
21.08.2014 06:00 12,4 C 81 % 1016,1 hPa 1,8 l/m 1,2 km/h N 9,2 C 12,4 C 6,0 km/h
21.08.2014 07:00 12,5 C 80 % 1015,8 hPa 0,3 l/m 0,3 km/h N 9,2 C 12,5 C 4,0 km/h
21.08.2014 08:00 13,4 C 80 % 1015,9 hPa 0,0 l/m 3,5 km/h N 9,9 C 13,4 C 11,7 km/h
21.08.2014 09:00 14,5 C 83 % 1016,3 hPa 0,0 l/m 4,4 km/h N 11,7 C 14,5 C 13,3 km/h
21.08.2014 10:00 16,2 C 79 % 1016,3 hPa 0,0 l/m 4,8 km/h N 12,5 C 16,1 C 16,5 km/h
21.08.2014 11:00 18,1 C 69 % 1016,4 hPa 0,0 l/m 5,7 km/h N 12,3 C 18,0 C 20,1 km/h
21.08.2014 12:00 19,3 C 64 % 1016,3 hPa 0,0 l/m 6,7 km/h N 12,2 C 19,1 C 23,3 km/h
21.08.2014 13:00 19,0 C 63 % 1016,6 hPa 0,0 l/m 5,5 km/h N 11,8 C 18,9 C 16,9 km/h
21.08.2014 14:00 20,1 C 62 % 1016,4 hPa 0,0 l/m 4,6 km/h N 12,4 C 20,0 C 15,7 km/h
21.08.2014 15:00 20,7 C 57 % 1016,0 hPa 0,0 l/m 5,0 km/h N 11,8 C 20,7 C 18,1 km/h
21.08.2014 16:00 20,2 C 57 % 1015,7 hPa 0,0 l/m 8,0 km/h N 11,4 C 19,5 C 23,3 km/h
21.08.2014 17:00 20,0 C 53 % 1015,6 hPa 0,0 l/m 6,5 km/h N 10,2 C 19,8 C 21,7 km/h
21.08.2014 18:00 19,6 C 57 % 1015,9 hPa 0,0 l/m 4,6 km/h N 10,9 C 19,6 C 17,7 km/h
21.08.2014 19:00 18,8 C 64 % 1016,2 hPa 0,0 l/m 0,7 km/h N 11,7 C 18,8 C 5,6 km/h
21.08.2014 20:00 17,6 C 68 % 1016,5 hPa 0,0 l/m 0,2 km/h N 11,6 C 17,6 C 1,6 km/h
21.08.2014 21:00 16,6 C 72 % 1016,9 hPa 0,0 l/m 0,0 km/h N 11,6 C 16,6 C 1,2 km/h
21.08.2014 22:00 15,7 C 77 % 1017,1 hPa 0,0 l/m 0,0 km/h N 11,6 C 15,7 C 0,0 km/h
21.08.2014 23:00 14,8 C 80 % 1017,2 hPa 0,0 l/m 0,0 km/h N 11,5 C 14,8 C 0,0 km/h
22.08.2014 00:00 14,1 C 82 % 1017,3 hPa 0,0 l/m 0,0 km/h N 11,0 C 14,1 C 0,0 km/h
22.08.2014 01:00 13,6 C 84 % 1017,1 hPa 0,0 l/m 0,1 km/h N 10,9 C 13,6 C 2,4 km/h
22.08.2014 02:00 13,4 C 84 % 1016,5 hPa 0,0 l/m 0,2 km/h N 10,8 C 13,4 C 0,8 km/h
22.08.2014 03:00 12,7 C 84 % 1016,5 hPa 0,0 l/m 0,0 km/h N 10,1 C 12,7 C 0,4 km/h
22.08.2014 04:00 12,9 C 84 % 1016,3 hPa 0,0 l/m 0,0 km/h N 10,2 C 12,9 C 0,8 km/h
22.08.2014 05:00 13,1 C 83 % 1016,2 hPa 0,0 l/m 0,0 km/h N 10,2 C 13,1 C 0,4 km/h
22.08.2014 06:00 13,4 C 82 % 1016,5 hPa 0,0 l/m 0,1 km/h N 10,4 C 13,4 C 1,2 km/h
22.08.2014 07:00 13,8 C 82 % 1016,6 hPa 0,0 l/m 0,0 km/h N 10,7 C 13,8 C 0,8 km/h
22.08.2014 08:00 14,1 C 82 % 1016,8 hPa 0,0 l/m 0,0 km/h N 11,1 C 14,1 C 0,8 km/h
22.08.2014 09:00 14,9 C 84 % 1016,9 hPa 0,0 l/m 0,6 km/h N 12,1 C 14,9 C 4,4 km/h
22.08.2014 10:00 16,7 C 83 % 1016,8 hPa 0,0 l/m 1,0 km/h N 13,6 C 16,7 C 6,8 km/h
22.08.2014 11:00 19,1 C 75 % 1016,3 hPa 0,0 l/m 3,6 km/h N 14,4 C 19,1 C 13,3 km/h
22.08.2014 12:00 19,8 C 72 % 1016,0 hPa 0,0 l/m 4,3 km/h N 14,5 C 19,8 C 14,1 km/h
22.08.2014 13:00 21,6 C 65 % 1015,6 hPa 0,0 l/m 6,2 km/h N 14,7 C 21,6 C 17,7 km/h
22.08.2014 14:00 22,5 C 60 % 1015,3 hPa 0,0 l/m 5,6 km/h N 14,4 C 22,5 C 17,7 km/h
22.08.2014 15:00 22,1 C 61 % 1014,8 hPa 0,0 l/m 5,8 km/h N 14,1 C 22,0 C 16,5 km/h
22.08.2014 16:00 22,0 C 59 % 1014,3 hPa 0,0 l/m 4,6 km/h N 13,7 C 22,0 C 15,7 km/h
22.08.2014 17:00 21,6 C 61 % 1013,9 hPa 0,0 l/m 3,6 km/h N 13,6 C 21,6 C 12,5 km/h
22.08.2014 18:00 21,1 C 64 % 1013,5 hPa 0,0 l/m 3,5 km/h N 14,0 C 21,1 C 12,9 km/h
22.08.2014 19:00 20,3 C 69 % 1013,5 hPa 0,0 l/m 1,6 km/h N 14,3 C 20,3 C 7,3 km/h
22.08.2014 20:00 18,9 C 74 % 1013,8 hPa 0,0 l/m 0,2 km/h N 14,1 C 18,9 C 3,2 km/h
22.08.2014 21:00 17,9 C 79 % 1014,0 hPa 0,0 l/m 1,1 km/h N 14,2 C 17,9 C 6,4 km/h
22.08.2014 22:00 17,5 C 80 % 1014,1 hPa 0,0 l/m 0,1 km/h N 14,0 C 17,5 C 2,8 km/h
22.08.2014 23:00 17,3 C 82 % 1014,0 hPa 0,0 l/m 0,4 km/h N 14,1 C 17,3 C 3,6 km/h
23.08.2014 00:00 17,0 C 83 % 1013,7 hPa 0,3 l/m 1,6 km/h N 14,1 C 17,0 C 9,6 km/h
23.08.2014 01:00 16,6 C 82 % 1014,1 hPa 0,0 l/m 1,7 km/h N 13,5 C 16,6 C 6,4 km/h
23.08.2014 02:00 15,1 C 83 % 1014,1 hPa 0,0 l/m 0,0 km/h N 12,3 C 15,1 C 0,0 km/h
23.08.2014 03:00 14,1 C 84 % 1014,3 hPa 0,0 l/m 0,0 km/h N 11,4 C 14,1 C 1,2 km/h
23.08.2014 04:00 13,6 C 84 % 1014,2 hPa 0,0 l/m 0,1 km/h N 10,9 C 13,6 C 1,2 km/h
23.08.2014 05:00 13,3 C 83 % 1014,2 hPa 0,0 l/m 0,4 km/h N 10,5 C 13,3 C 3,6 km/h
23.08.2014 06:00 12,9 C 83 % 1014,6 hPa 0,0 l/m 0,0 km/h N 10,0 C 12,9 C 0,8 km/h
23.08.2014 07:00 13,8 C 80 % 1014,8 hPa 0,0 l/m 0,1 km/h N 10,5 C 13,8 C 2,0 km/h
23.08.2014 08:00 15,7 C 80 % 1014,8 hPa 0,0 l/m 0,1 km/h N 12,2 C 15,7 C 1,6 km/h
23.08.2014 09:00 17,8 C 82 % 1014,8 hPa 0,0 l/m 2,0 km/h N 14,5 C 17,8 C 6,8 km/h
23.08.2014 10:00 20,1 C 73 % 1014,5 hPa 0,3 l/m 1,4 km/h N 15,0 C 20,1 C 6,4 km/h
23.08.2014 11:00 22,1 C 67 % 1014,2 hPa 0,0 l/m 1,1 km/h N 15,6 C 22,1 C 7,2 km/h
23.08.2014 12:00 22,7 C 64 % 1013,8 hPa 0,0 l/m 1,3 km/h N 15,5 C 22,7 C 7,6 km/h
23.08.2014 13:00 22,7 C 66 % 1013,2 hPa 0,0 l/m 1,7 km/h N 16,0 C 22,7 C 9,3 km/h
23.08.2014 14:00 22,0 C 69 % 1012,6 hPa 0,0 l/m 2,6 km/h N 16,1 C 22,0 C 11,7 km/h
23.08.2014 15:00 22,0 C 68 % 1012,1 hPa 0,0 l/m 1,6 km/h N 15,8 C 22,0 C 9,6 km/h
23.08.2014 16:00 22,1 C 69 % 1011,5 hPa 0,0 l/m 0,3 km/h N 16,2 C 22,1 C 5,2 km/h
23.08.2014 17:00 20,7 C 72 % 1011,5 hPa 0,0 l/m 1,0 km/h N 15,5 C 20,7 C 8,5 km/h
23.08.2014 18:00 17,5 C 82 % 1012,1 hPa 5,5 l/m 3,1 km/h N 14,3 C 17,5 C 13,7 km/h
23.08.2014 19:00 16,4 C 84 % 1011,9 hPa 0,0 l/m 4,1 km/h N 13,6 C 16,4 C 14,9 km/h
23.08.2014 20:00 16,0 C 84 % 1012,1 hPa 0,5 l/m 6,1 km/h N 13,2 C 15,7 C 19,3 km/h
23.08.2014 21:00 15,5 C 84 % 1012,6 hPa 1,0 l/m 6,6 km/h N 12,8 C 15,0 C 20,5 km/h
23.08.2014 22:00 15,1 C 84 % 1012,6 hPa 0,3 l/m 5,8 km/h N 12,4 C 15,0 C 19,7 km/h
23.08.2014 23:00 14,8 C 83 % 1012,9 hPa 0,5 l/m 3,3 km/h N 12,0 C 14,8 C 12,5 km/h
24.08.2014 00:00 14,6 C 83 % 1012,5 hPa 0,0 l/m 2,1 km/h N 11,8 C 14,6 C 10,9 km/h
24.08.2014 01:00 15,3 C 78 % 1012,1 hPa 0,0 l/m 6,4 km/h N 11,5 C 14,5 C 20,5 km/h
24.08.2014 02:00 16,0 C 76 % 1012,2 hPa 0,0 l/m 9,2 km/h N 11,8 C 14,6 C 29,8 km/h
24.08.2014 03:00 15,9 C 77 % 1012,1 hPa 0,0 l/m 10,3 km/h N 11,8 C 14,0 C 27,8 km/h
24.08.2014 04:00 15,7 C 78 % 1012,2 hPa 0,0 l/m 11,6 km/h N 11,8 C 13,2 C 27,0 km/h
24.08.2014 05:00 15,4 C 77 % 1012,8 hPa 0,0 l/m 10,5 km/h N 11,4 C 13,5 C 27,8 km/h
24.08.2014 06:00 14,9 C 75 % 1013,3 hPa 0,0 l/m 10,3 km/h N 10,5 C 12,9 C 28,6 km/h
24.08.2014 07:00 14,9 C 75 % 1013,6 hPa 0,0 l/m 10,3 km/h N 10,5 C 12,9 C 25,8 km/h
24.08.2014 08:00 15,0 C 75 % 1014,2 hPa 0,0 l/m 8,8 km/h N 10,6 C 13,6 C 23,7 km/h
24.08.2014 09:00 16,4 C 70 % 1014,5 hPa 0,0 l/m 8,2 km/h N 10,8 C 15,5 C 25,3 km/h
24.08.2014 10:00 17,6 C 65 % 1015,0 hPa 0,0 l/m 10,7 km/h N 10,8 C 15,7 C 25,8 km/h
24.08.2014 11:00 18,1 C 62 % 1015,8 hPa 0,0 l/m 10,0 km/h N 10,7 C 16,5 C 32,6 km/h
24.08.2014 12:00 16,9 C 63 % 1016,2 hPa 0,0 l/m 10,3 km/h N 9,8 C 15,2 C 37,8 km/h
24.08.2014 13:00 16,9 C 62 % 1016,5 hPa 0,0 l/m 12,4 km/h N 9,5 C 14,3 C 35,0 km/h
24.08.2014 14:00 15,4 C 66 % 1017,2 hPa 0,0 l/m 11,0 km/h N 9,1 C 13,2 C 30,2 km/h
24.08.2014 15:00 14,5 C 72 % 1017,4 hPa 0,3 l/m 8,0 km/h N 9,6 C 13,6 C 22,1 km/h
24.08.2014 16:00 15,7 C 67 % 1017,4 hPa 0,0 l/m 9,1 km/h N 9,5 C 14,3 C 26,6 km/h
24.08.2014 17:00 16,3 C 61 % 1017,3 hPa 0,0 l/m 8,1 km/h N 8,6 C 15,4 C 24,6 km/h
24.08.2014 18:00 15,7 C 62 % 1017,5 hPa 0,0 l/m 6,6 km/h N 8,5 C 15,4 C 22,9 km/h
24.08.2014 19:00 14,9 C 61 % 1017,7 hPa 0,0 l/m 5,2 km/h N 7,5 C 14,9 C 19,3 km/h
24.08.2014 20:00 14,4 C 63 % 1018,4 hPa 0,0 l/m 3,7 km/h N 7,4 C 14,4 C 14,1 km/h
24.08.2014 21:00 14,1 C 66 % 1018,9 hPa 0,0 l/m 3,3 km/h N 7,8 C 14,1 C 12,9 km/h
24.08.2014 22:00 14,1 C 66 % 1018,9 hPa 0,0 l/m 4,5 km/h N 7,9 C 14,1 C 14,9 km/h
24.08.2014 23:00 13,8 C 68 % 1019,2 hPa 0,0 l/m 1,9 km/h N 7,9 C 13,8 C 10,1 km/h
Min-Datum _ 18.08.14 18.08.14 18.08.14 - 18.08.14 - 24.08.14 18.08.14 18.08.14
_ Min-Zeit 06:30 15:30 20:15 - 00:15 - 20:15 05:45 00:15
Minimum _ 10,0 C 38 % 1007,6 hPa - 0,0 km/h - 7,3 C 10,1 C 0,0 km/h
Max-Datum _ 18.08.14 18.08.14 24.08.14 23.08.14 24.08.14 - 23.08.14 18.08.14 24.08.14
_ Max-Zeit 15:00 02:30 23:30 18:00 12:00 - 16:30 14:45 12:00
Maximum _ 27,1 C 84 % 1019,3 hPa 5,5 l/m 16,4 km/h
N
- 16,5 C 26,9 C 48,3 km/h
N
Durchschnitt _ 17,2 C 73 % 1014,0 hPa #25,0 l/m 3,0 km/h N 12,1 C 17,0 C 10,3 km/h